Aviation Digital Data Service (ADDS)

Output produced by METARs form (1357 UTC 22 April 2019)
found at http://www.aviationweather.gov/metar/data/
 
METAR text: KTCL 221353Z 00000KT 10SM CLR 17/11 A3023 RMK AO2 SLP234 T01670111
Conditions at: KTCL (TUSCALOOSA , AL, US) observed 1353 UTC 22 April 2019
Temperature: 16.7°C (62°F)
Dewpoint: 11.1°C (52°F) [RH = 70%]
Pressure (altimeter): 30.23 inches Hg (1023.8 mb)
[Sea-level pressure: 1023.4 mb]
Winds: calm
Visibility: 10 or more miles (16+ km)
Ceiling: at least 12,000 feet AGL
Clouds: sky clear below 12,000 feet AGL
Weather: no significant weather observed at this time

METAR text: KTCL 221253Z 00000KT 10SM CLR 14/10 A3023 RMK AO2 SLP236 T01390100
Conditions at: KTCL (TUSCALOOSA , AL, US) observed 1253 UTC 22 April 2019
Temperature: 13.9°C (57°F)
Dewpoint: 10.0°C (50°F) [RH = 77%]
Pressure (altimeter): 30.23 inches Hg (1023.8 mb)
[Sea-level pressure: 1023.6 mb]
Winds: calm
Visibility: 10 or more miles (16+ km)
Ceiling: at least 12,000 feet AGL
Clouds: sky clear below 12,000 feet AGL
Weather: no significant weather observed at this time

METAR text: KTCL 221153Z 00000KT 10SM CLR 10/08 A3022 RMK AO2 SLP230 T01000083 10122 20089 53021
Conditions at: KTCL (TUSCALOOSA , AL, US) observed 1153 UTC 22 April 2019
Temperature: 10.0°C (50°F)
Dewpoint: 8.3°C (47°F) [RH = 89%]
Pressure (altimeter): 30.22 inches Hg (1023.5 mb)
[Sea-level pressure: 1023.0 mb]
Winds: calm
Visibility: 10 or more miles (16+ km)
Ceiling: at least 12,000 feet AGL
Clouds: sky clear below 12,000 feet AGL
Weather: no significant weather observed at this time

METAR text: KTCL 221053Z AUTO 00000KT 10SM CLR 09/08 A3018 RMK AO2 SLP219 T00940078
Conditions at: KTCL (TUSCALOOSA , AL, US) observed 1053 UTC 22 April 2019
Temperature: 9.4°C (49°F)
Dewpoint: 7.8°C (46°F) [RH = 90%]
Pressure (altimeter): 30.18 inches Hg (1022.1 mb)
[Sea-level pressure: 1021.9 mb]
Winds: calm
Visibility: 10 or more miles (16+ km)
Ceiling: at least 12,000 feet AGL
Clouds: sky clear below 12,000 feet AGL
Weather: automated observation with no human augmentation;
there may or may not be significant weather present at this time

METAR text: KTCL 220953Z AUTO 00000KT 10SM CLR 09/08 A3017 RMK AO2 SLP213 T00940078
Conditions at: KTCL (TUSCALOOSA , AL, US) observed 0953 UTC 22 April 2019
Temperature: 9.4°C (49°F)
Dewpoint: 7.8°C (46°F) [RH = 90%]
Pressure (altimeter): 30.17 inches Hg (1021.8 mb)
[Sea-level pressure: 1021.3 mb]
Winds: calm
Visibility: 10 or more miles (16+ km)
Ceiling: at least 12,000 feet AGL
Clouds: sky clear below 12,000 feet AGL
Weather: automated observation with no human augmentation;
there may or may not be significant weather present at this time

METAR text: KTCL 220853Z AUTO 00000KT 10SM CLR 10/08 A3015 RMK AO2 SLP209 T01000083 55002
Conditions at: KTCL (TUSCALOOSA , AL, US) observed 0853 UTC 22 April 2019
Temperature: 10.0°C (50°F)
Dewpoint: 8.3°C (47°F) [RH = 89%]
Pressure (altimeter): 30.15 inches Hg (1021.1 mb)
[Sea-level pressure: 1020.9 mb]
Winds: calm
Visibility: 10 or more miles (16+ km)
Ceiling: at least 12,000 feet AGL
Clouds: sky clear below 12,000 feet AGL
Weather: automated observation with no human augmentation;
there may or may not be significant weather present at this time

METAR text: KTCL 220753Z AUTO 00000KT 10SM CLR 11/08 A3015 RMK AO2 SLP208 T01060083
Conditions at: KTCL (TUSCALOOSA , AL, US) observed 0753 UTC 22 April 2019
Temperature: 10.6°C (51°F)
Dewpoint: 8.3°C (47°F) [RH = 86%]
Pressure (altimeter): 30.15 inches Hg (1021.1 mb)
[Sea-level pressure: 1020.8 mb]
Winds: calm
Visibility: 10 or more miles (16+ km)
Ceiling: at least 12,000 feet AGL
Clouds: sky clear below 12,000 feet AGL
Weather: automated observation with no human augmentation;
there may or may not be significant weather present at this time

METAR text: KTCL 220653Z AUTO 00000KT 9SM CLR 12/09 A3016 RMK AO2 SLP210 T01170094
Conditions at: KTCL (TUSCALOOSA , AL, US) observed 0653 UTC 22 April 2019
Temperature: 11.7°C (53°F)
Dewpoint: 9.4°C (49°F) [RH = 86%]
Pressure (altimeter): 30.16 inches Hg (1021.4 mb)
[Sea-level pressure: 1021.0 mb]
Winds: calm
Visibility: 9 miles (14 km)
Ceiling: at least 12,000 feet AGL
Clouds: sky clear below 12,000 feet AGL
Weather: automated observation with no human augmentation;
there may or may not be significant weather present at this time

METAR text: KTCL 220553Z AUTO 00000KT 10SM CLR 12/10 A3016 RMK AO2 SLP212 T01220100 10239 20122 402780050 52004
Conditions at: KTCL (TUSCALOOSA , AL, US) observed 0553 UTC 22 April 2019
Temperature: 12.2°C (54°F)
Dewpoint: 10.0°C (50°F) [RH = 86%]
Pressure (altimeter): 30.16 inches Hg (1021.4 mb)
[Sea-level pressure: 1021.2 mb]
Winds: calm
Visibility: 10 or more miles (16+ km)
Ceiling: at least 12,000 feet AGL
Clouds: sky clear below 12,000 feet AGL
Weather: automated observation with no human augmentation;
there may or may not be significant weather present at this time

METAR text: KTCL 220453Z AUTO 00000KT 10SM CLR 13/10 A3016 RMK AO2 SLP211 T01280100
Conditions at: KTCL (TUSCALOOSA , AL, US) observed 0453 UTC 22 April 2019
Temperature: 12.8°C (55°F)
Dewpoint: 10.0°C (50°F) [RH = 83%]
Pressure (altimeter): 30.16 inches Hg (1021.4 mb)
[Sea-level pressure: 1021.1 mb]
Winds: calm
Visibility: 10 or more miles (16+ km)
Ceiling: at least 12,000 feet AGL
Clouds: sky clear below 12,000 feet AGL
Weather: automated observation with no human augmentation;
there may or may not be significant weather present at this time

METAR text: KTCL 220353Z AUTO 00000KT 10SM CLR 14/11 A3015 RMK AO2 SLP208 T01390106
Conditions at: KTCL (TUSCALOOSA , AL, US) observed 0353 UTC 22 April 2019
Temperature: 13.9°C (57°F)
Dewpoint: 10.6°C (51°F) [RH = 80%]
Pressure (altimeter): 30.15 inches Hg (1021.1 mb)
[Sea-level pressure: 1020.8 mb]
Winds: calm
Visibility: 10 or more miles (16+ km)
Ceiling: at least 12,000 feet AGL
Clouds: sky clear below 12,000 feet AGL
Weather: automated observation with no human augmentation;
there may or may not be significant weather present at this time

METAR text: KTCL 220253Z AUTO 00000KT 10SM CLR 14/11 A3015 RMK AO2 SLP207 T01440106 53017
Conditions at: KTCL (TUSCALOOSA , AL, US) observed 0253 UTC 22 April 2019
Temperature: 14.4°C (58°F)
Dewpoint: 10.6°C (51°F) [RH = 78%]
Pressure (altimeter): 30.15 inches Hg (1021.1 mb)
[Sea-level pressure: 1020.7 mb]
Winds: calm
Visibility: 10 or more miles (16+ km)
Ceiling: at least 12,000 feet AGL
Clouds: sky clear below 12,000 feet AGL
Weather: automated observation with no human augmentation;
there may or may not be significant weather present at this time

METAR text: KTCL 220153Z AUTO 00000KT 10SM CLR 16/11 A3014 RMK AO2 SLP203 T01610106
Conditions at: KTCL (TUSCALOOSA , AL, US) observed 0153 UTC 22 April 2019
Temperature: 16.1°C (61°F)
Dewpoint: 10.6°C (51°F) [RH = 70%]
Pressure (altimeter): 30.14 inches Hg (1020.7 mb)
[Sea-level pressure: 1020.3 mb]
Winds: calm
Visibility: 10 or more miles (16+ km)
Ceiling: at least 12,000 feet AGL
Clouds: sky clear below 12,000 feet AGL
Weather: automated observation with no human augmentation;
there may or may not be significant weather present at this time

METAR text: KTCL 220053Z 00000KT 10SM CLR 19/11 A3011 RMK AO2 SLP194 T01890111
Conditions at: KTCL (TUSCALOOSA , AL, US) observed 0053 UTC 22 April 2019
Temperature: 18.9°C (66°F)
Dewpoint: 11.1°C (52°F) [RH = 61%]
Pressure (altimeter): 30.11 inches Hg (1019.7 mb)
[Sea-level pressure: 1019.4 mb]
Winds: calm
Visibility: 10 or more miles (16+ km)
Ceiling: at least 12,000 feet AGL
Clouds: sky clear below 12,000 feet AGL
Weather: no significant weather observed at this time

METAR text: KTCL 212353Z 22003KT 10SM CLR 24/08 A3010 RMK AO2 SLP190 T02390083 10278 20239 55000
Conditions at: KTCL (TUSCALOOSA , AL, US) observed 2353 UTC 21 April 2019
Temperature: 23.9°C (75°F)
Dewpoint: 8.3°C (47°F) [RH = 37%]
Pressure (altimeter): 30.10 inches Hg (1019.4 mb)
[Sea-level pressure: 1019.0 mb]
Winds: from the SW (220 degrees) at 3 MPH (3 knots; 1.5 m/s)
Visibility: 10 or more miles (16+ km)
Ceiling: at least 12,000 feet AGL
Clouds: sky clear below 12,000 feet AGL
Weather: no significant weather observed at this time

METAR text: KTCL 212253Z 23007KT 10SM CLR 26/06 A3009 RMK AO2 SLP189 T02610061
Conditions at: KTCL (TUSCALOOSA , AL, US) observed 2253 UTC 21 April 2019
Temperature: 26.1°C (79°F)
Dewpoint: 6.1°C (43°F) [RH = 28%]
Pressure (altimeter): 30.09 inches Hg (1019.0 mb)
[Sea-level pressure: 1018.9 mb]
Winds: from the SW (230 degrees) at 8 MPH (7 knots; 3.6 m/s)
Visibility: 10 or more miles (16+ km)
Ceiling: at least 12,000 feet AGL
Clouds: sky clear below 12,000 feet AGL
Weather: no significant weather observed at this time

METAR text: KTCL 212153Z 21005KT 10SM CLR 27/06 A3009 RMK AO2 SLP187 T02670061
Conditions at: KTCL (TUSCALOOSA , AL, US) observed 2153 UTC 21 April 2019
Temperature: 26.7°C (80°F)
Dewpoint: 6.1°C (43°F) [RH = 27%]
Pressure (altimeter): 30.09 inches Hg (1019.0 mb)
[Sea-level pressure: 1018.7 mb]
Winds: from the SSW (210 degrees) at 6 MPH (5 knots; 2.6 m/s)
Visibility: 10 or more miles (16+ km)
Ceiling: at least 12,000 feet AGL
Clouds: sky clear below 12,000 feet AGL
Weather: no significant weather observed at this time

METAR text: KTCL 212053Z 00000KT 10SM CLR 27/06 A3010 RMK AO2 SLP190 T02670056 58013
Conditions at: KTCL (TUSCALOOSA , AL, US) observed 2053 UTC 21 April 2019
Temperature: 26.7°C (80°F)
Dewpoint: 5.6°C (42°F) [RH = 26%]
Pressure (altimeter): 30.10 inches Hg (1019.4 mb)
[Sea-level pressure: 1019.0 mb]
Winds: calm
Visibility: 10 or more miles (16+ km)
Ceiling: at least 12,000 feet AGL
Clouds: sky clear below 12,000 feet AGL
Weather: no significant weather observed at this time

METAR text: KTCL 211953Z VRB04KT 10SM CLR 26/06 A3011 RMK AO2 SLP194 T02610061
Conditions at: KTCL (TUSCALOOSA , AL, US) observed 1953 UTC 21 April 2019
Temperature: 26.1°C (79°F)
Dewpoint: 6.1°C (43°F) [RH = 28%]
Pressure (altimeter): 30.11 inches Hg (1019.7 mb)
[Sea-level pressure: 1019.4 mb]
Winds: variable direction winds at 5 MPH (4 knots; 2.1 m/s)
Visibility: 10 or more miles (16+ km)
Ceiling: at least 12,000 feet AGL
Clouds: sky clear below 12,000 feet AGL
Weather: no significant weather observed at this time

METAR text: KTCL 211853Z VRB06KT 10SM CLR 26/06 A3012 RMK AO2 SLP199 T02560061
Conditions at: KTCL (TUSCALOOSA , AL, US) observed 1853 UTC 21 April 2019
Temperature: 25.6°C (78°F)
Dewpoint: 6.1°C (43°F) [RH = 29%]
Pressure (altimeter): 30.12 inches Hg (1020.1 mb)
[Sea-level pressure: 1019.9 mb]
Winds: variable direction winds at 7 MPH (6 knots; 3.1 m/s)
Visibility: 10 or more miles (16+ km)
Ceiling: at least 12,000 feet AGL
Clouds: sky clear below 12,000 feet AGL
Weather: no significant weather observed at this time

METAR text: KTCL 211753Z 00000KT 10SM CLR 25/07 A3014 RMK AO2 SLP203 T02500067 10250 20067 58007
Conditions at: KTCL (TUSCALOOSA , AL, US) observed 1753 UTC 21 April 2019
Temperature: 25.0°C (77°F)
Dewpoint: 6.7°C (44°F) [RH = 31%]
Pressure (altimeter): 30.14 inches Hg (1020.7 mb)
[Sea-level pressure: 1020.3 mb]
Winds: calm
Visibility: 10 or more miles (16+ km)
Ceiling: at least 12,000 feet AGL
Clouds: sky clear below 12,000 feet AGL
Weather: no significant weather observed at this time

METAR text: KTCL 211653Z 00000KT 10SM CLR 24/08 A3015 RMK AO2 SLP208 T02390078
Conditions at: KTCL (TUSCALOOSA , AL, US) observed 1653 UTC 21 April 2019
Temperature: 23.9°C (75°F)
Dewpoint: 7.8°C (46°F) [RH = 36%]
Pressure (altimeter): 30.15 inches Hg (1021.1 mb)
[Sea-level pressure: 1020.8 mb]
Winds: calm
Visibility: 10 or more miles (16+ km)
Ceiling: at least 12,000 feet AGL
Clouds: sky clear below 12,000 feet AGL
Weather: no significant weather observed at this time

METAR text: KTCL 211553Z 18004KT 10SM CLR 21/08 A3016 RMK AO2 SLP210 T02110083
Conditions at: KTCL (TUSCALOOSA , AL, US) observed 1553 UTC 21 April 2019
Temperature: 21.1°C (70°F)
Dewpoint: 8.3°C (47°F) [RH = 44%]
Pressure (altimeter): 30.16 inches Hg (1021.4 mb)
[Sea-level pressure: 1021.0 mb]
Winds: from the S (180 degrees) at 5 MPH (4 knots; 2.1 m/s)
Visibility: 10 or more miles (16+ km)
Ceiling: at least 12,000 feet AGL
Clouds: sky clear below 12,000 feet AGL
Weather: no significant weather observed at this time

METAR text: KTCL 211453Z VRB04KT 10SM CLR 18/07 A3016 RMK AO2 SLP212 T01780072 51012
Conditions at: KTCL (TUSCALOOSA , AL, US) observed 1453 UTC 21 April 2019
Temperature: 17.8°C (64°F)
Dewpoint: 7.2°C (45°F) [RH = 50%]
Pressure (altimeter): 30.16 inches Hg (1021.4 mb)
[Sea-level pressure: 1021.2 mb]
Winds: variable direction winds at 5 MPH (4 knots; 2.1 m/s)
Visibility: 10 or more miles (16+ km)
Ceiling: at least 12,000 feet AGL
Clouds: sky clear below 12,000 feet AGL
Weather: no significant weather observed at this time

METAR text: KTCL 211353Z 00000KT 10SM CLR 13/09 A3016 RMK AO2 SLP211 T01330089
Conditions at: KTCL (TUSCALOOSA , AL, US) observed 1353 UTC 21 April 2019
Temperature: 13.3°C (56°F)
Dewpoint: 8.9°C (48°F) [RH = 75%]
Pressure (altimeter): 30.16 inches Hg (1021.4 mb)
[Sea-level pressure: 1021.1 mb]
Winds: calm
Visibility: 10 or more miles (16+ km)
Ceiling: at least 12,000 feet AGL
Clouds: sky clear below 12,000 feet AGL
Weather: no significant weather observed at this time

METAR text: KTCL 211253Z 00000KT 10SM CLR 11/07 A3015 RMK AO2 SLP207 T01060067
Conditions at: KTCL (TUSCALOOSA , AL, US) observed 1253 UTC 21 April 2019
Temperature: 10.6°C (51°F)
Dewpoint: 6.7°C (44°F) [RH = 77%]
Pressure (altimeter): 30.15 inches Hg (1021.1 mb)
[Sea-level pressure: 1020.7 mb]
Winds: calm
Visibility: 10 or more miles (16+ km)
Ceiling: at least 12,000 feet AGL
Clouds: sky clear below 12,000 feet AGL
Weather: no significant weather observed at this time

METAR text: KTCL 211153Z 00000KT 10SM CLR 07/04 A3012 RMK AO2 SLP200 T00670044 10078 20050 53023
Conditions at: KTCL (TUSCALOOSA , AL, US) observed 1153 UTC 21 April 2019
Temperature: 6.7°C (44°F)
Dewpoint: 4.4°C (40°F) [RH = 85%]
Pressure (altimeter): 30.12 inches Hg (1020.1 mb)
[Sea-level pressure: 1020.0 mb]
Winds: calm
Visibility: 10 or more miles (16+ km)
Ceiling: at least 12,000 feet AGL
Clouds: sky clear below 12,000 feet AGL
Weather: no significant weather observed at this time

METAR text: KTCL 211053Z AUTO 00000KT 10SM CLR 06/03 A3009 RMK AO2 SLP189 T00560033
Conditions at: KTCL (TUSCALOOSA , AL, US) observed 1053 UTC 21 April 2019
Temperature: 5.6°C (42°F)
Dewpoint: 3.3°C (38°F) [RH = 85%]
Pressure (altimeter): 30.09 inches Hg (1019.0 mb)
[Sea-level pressure: 1018.9 mb]
Winds: calm
Visibility: 10 or more miles (16+ km)
Ceiling: at least 12,000 feet AGL
Clouds: sky clear below 12,000 feet AGL
Weather: automated observation with no human augmentation;
there may or may not be significant weather present at this time

METAR text: KTCL 210953Z AUTO 00000KT 10SM CLR 06/03 A3007 RMK AO2 SLP182 T00560033
Conditions at: KTCL (TUSCALOOSA , AL, US) observed 0953 UTC 21 April 2019
Temperature: 5.6°C (42°F)
Dewpoint: 3.3°C (38°F) [RH = 85%]
Pressure (altimeter): 30.07 inches Hg (1018.4 mb)
[Sea-level pressure: 1018.2 mb]
Winds: calm
Visibility: 10 or more miles (16+ km)
Ceiling: at least 12,000 feet AGL
Clouds: sky clear below 12,000 feet AGL
Weather: automated observation with no human augmentation;
there may or may not be significant weather present at this time

METAR text: KTCL 210853Z AUTO 02003KT 10SM CLR 06/04 A3006 RMK AO2 SLP177 T00610039 53010
Conditions at: KTCL (TUSCALOOSA , AL, US) observed 0853 UTC 21 April 2019
Temperature: 6.1°C (43°F)
Dewpoint: 3.9°C (39°F) [RH = 86%]
Pressure (altimeter): 30.06 inches Hg (1018.0 mb)
[Sea-level pressure: 1017.7 mb]
Winds: from the NNE (20 degrees) at 3 MPH (3 knots; 1.5 m/s)
Visibility: 10 or more miles (16+ km)
Ceiling: at least 12,000 feet AGL
Clouds: sky clear below 12,000 feet AGL
Weather: automated observation with no human augmentation;
there may or may not be significant weather present at this time

METAR text: KTCL 210753Z AUTO 00000KT 10SM CLR 07/04 A3004 RMK AO2 SLP171 T00670044
Conditions at: KTCL (TUSCALOOSA , AL, US) observed 0753 UTC 21 April 2019
Temperature: 6.7°C (44°F)
Dewpoint: 4.4°C (40°F) [RH = 85%]
Pressure (altimeter): 30.04 inches Hg (1017.4 mb)
[Sea-level pressure: 1017.1 mb]
Winds: calm
Visibility: 10 or more miles (16+ km)
Ceiling: at least 12,000 feet AGL
Clouds: sky clear below 12,000 feet AGL
Weather: automated observation with no human augmentation;
there may or may not be significant weather present at this time

METAR text: KTCL 210653Z AUTO 00000KT 10SM CLR 07/05 A3003 RMK AO2 SLP167 T00720050
Conditions at: KTCL (TUSCALOOSA , AL, US) observed 0653 UTC 21 April 2019
Temperature: 7.2°C (45°F)
Dewpoint: 5.0°C (41°F) [RH = 86%]
Pressure (altimeter): 30.03 inches Hg (1017.0 mb)
[Sea-level pressure: 1016.7 mb]
Winds: calm
Visibility: 10 or more miles (16+ km)
Ceiling: at least 12,000 feet AGL
Clouds: sky clear below 12,000 feet AGL
Weather: automated observation with no human augmentation;
there may or may not be significant weather present at this time

METAR text: KTCL 210553Z 00000KT 10SM CLR 08/05 A3003 RMK AO2 SLP167 T00780050 10189 20072 402110072 51011
Conditions at: KTCL (TUSCALOOSA , AL, US) observed 0553 UTC 21 April 2019
Temperature: 7.8°C (46°F)
Dewpoint: 5.0°C (41°F) [RH = 82%]
Pressure (altimeter): 30.03 inches Hg (1017.0 mb)
[Sea-level pressure: 1016.7 mb]
Winds: calm
Visibility: 10 or more miles (16+ km)
Ceiling: at least 12,000 feet AGL
Clouds: sky clear below 12,000 feet AGL
Weather: no significant weather observed at this time

METAR text: KTCL 210453Z 00000KT 10SM CLR 08/05 A3002 RMK AO2 SLP164 T00780050
Conditions at: KTCL (TUSCALOOSA , AL, US) observed 0453 UTC 21 April 2019
Temperature: 7.8°C (46°F)
Dewpoint: 5.0°C (41°F) [RH = 82%]
Pressure (altimeter): 30.02 inches Hg (1016.7 mb)
[Sea-level pressure: 1016.4 mb]
Winds: calm
Visibility: 10 or more miles (16+ km)
Ceiling: at least 12,000 feet AGL
Clouds: sky clear below 12,000 feet AGL
Weather: no significant weather observed at this time

METAR text: KTCL 210353Z 00000KT 10SM CLR 09/05 A3001 RMK AO2 SLP160 T00890050
Conditions at: KTCL (TUSCALOOSA , AL, US) observed 0353 UTC 21 April 2019
Temperature: 8.9°C (48°F)
Dewpoint: 5.0°C (41°F) [RH = 76%]
Pressure (altimeter): 30.01 inches Hg (1016.3 mb)
[Sea-level pressure: 1016.0 mb]
Winds: calm
Visibility: 10 or more miles (16+ km)
Ceiling: at least 12,000 feet AGL
Clouds: sky clear below 12,000 feet AGL
Weather: no significant weather observed at this time

METAR text: KTCL 210253Z 00000KT 10SM CLR 10/04 A2999 RMK AO2 SLP156 T01000044 51024
Conditions at: KTCL (TUSCALOOSA , AL, US) observed 0253 UTC 21 April 2019
Temperature: 10.0°C (50°F)
Dewpoint: 4.4°C (40°F) [RH = 68%]
Pressure (altimeter): 29.99 inches Hg (1015.7 mb)
[Sea-level pressure: 1015.6 mb]
Winds: calm
Visibility: 10 or more miles (16+ km)
Ceiling: at least 12,000 feet AGL
Clouds: sky clear below 12,000 feet AGL
Weather: no significant weather observed at this time

Forecast for: KTCL (TUSCALOOSA , AL, US)
Text: KTCL 221120Z 2212/2312 00000KT P6SM SKC
Forecast period: 1200 to 1700 UTC 22 April 2019
Forecast type: FROM: standard forecast or significant change
Winds: calm
Visibility: 6 or more miles 10+ km)
Clouds: clear skies
Weather: no significant weather forecast for this period
Text: FM221700 20007KT P6SM SKC
Forecast period: 1700 UTC 22 April 2019 to 0000 UTC 23 April 2019
Forecast type: FROM: standard forecast or significant change
Winds: from the SSW (200 degrees) at 8 MPH (7 knots; 3.6 m/s)
Visibility: 6 or more miles 10+ km)
Clouds: clear skies
Weather: no significant weather forecast for this period
Text: FM230000 00000KT P6SM SKC
Forecast period: 0000 to 1200 UTC 23 April 2019
Forecast type: FROM: standard forecast or significant change
Winds: calm
Visibility: 6 or more miles 10+ km)
Clouds: clear skies
Weather: no significant weather forecast for this period